createdAt,value
2023-01-23T00:01:36.509Z,7.27
2023-01-23T00:04:05.587Z,6.93
2023-01-23T00:06:33.427Z,6.70
2023-01-23T00:09:02.006Z,7.80
2023-01-23T00:11:32.061Z,7.53
2023-01-23T00:14:01.569Z,7.20
2023-01-23T00:16:32.374Z,7.80
2023-01-23T00:19:02.376Z,6.73
2023-01-23T00:21:30.988Z,7.10
2023-01-23T00:24:01.901Z,6.70
2023-01-23T00:26:32.654Z,7.60
2023-01-23T00:29:01.074Z,6.70
2023-01-23T00:31:30.789Z,6.67
2023-01-23T00:34:03.621Z,7.00
2023-01-23T00:36:33.062Z,7.30
2023-01-23T00:39:01.093Z,6.60
2023-01-23T00:41:29.746Z,7.13
2023-01-23T00:43:57.565Z,8.00
2023-01-23T00:46:25.413Z,6.40
2023-01-23T00:48:53.854Z,7.50
2023-01-23T00:51:23.420Z,8.03
2023-01-23T00:53:51.946Z,7.10
2023-01-23T00:56:20.176Z,7.90
2023-01-23T00:58:48.109Z,6.37
2023-01-23T01:01:17.861Z,7.30
2023-01-23T01:03:46.468Z,6.97
2023-01-23T01:06:14.401Z,7.10
2023-01-23T01:08:43.934Z,5.77
2023-01-23T01:11:11.759Z,7.97
2023-01-23T01:13:39.595Z,6.70
2023-01-23T01:16:09.176Z,7.57
2023-01-23T01:18:37.010Z,7.87
2023-01-23T01:21:09.162Z,7.70
2023-01-23T01:23:37.316Z,7.30
2023-01-23T01:26:07.943Z,7.40
2023-01-23T01:28:38.470Z,7.90
2023-01-23T01:31:08.651Z,8.73
2023-01-23T01:33:36.994Z,7.30
2023-01-23T01:36:10.007Z,8.90
2023-01-23T01:38:38.728Z,8.03
2023-01-23T01:41:08.774Z,8.50
2023-01-23T01:43:37.093Z,8.77
2023-01-23T01:46:12.741Z,8.67
2023-01-23T01:48:45.581Z,9.50
2023-01-23T01:51:20.377Z,8.57
2023-01-23T01:53:52.105Z,8.83
2023-01-23T01:56:22.320Z,8.50
2023-01-23T01:58:56.733Z,7.73
2023-01-23T02:01:24.985Z,8.30
2023-01-23T02:03:54.388Z,8.83
2023-01-23T02:06:22.391Z,8.53
2023-01-23T02:08:58.579Z,8.73
2023-01-23T02:11:27.663Z,8.13
2023-01-23T02:13:57.111Z,8.33
2023-01-23T02:16:29.831Z,7.70
2023-01-23T02:19:01.658Z,9.67
2023-01-23T02:21:30.709Z,8.67
2023-01-23T02:24:11.776Z,10.10
2023-01-23T02:26:44.431Z,9.50
2023-01-23T02:29:13.327Z,9.50
2023-01-23T02:31:43.314Z,8.40
2023-01-23T02:34:13.592Z,10.33
2023-01-23T02:36:45.797Z,10.50
2023-01-23T02:39:16.116Z,9.80
2023-01-23T02:41:48.321Z,8.43
2023-01-23T02:44:19.121Z,10.03
2023-01-23T02:46:47.427Z,9.93
2023-01-23T02:49:15.543Z,9.83
2023-01-23T02:51:43.330Z,9.63
2023-01-23T02:54:11.562Z,9.10
2023-01-23T02:56:39.740Z,9.53
2023-01-23T02:59:26.657Z,9.67
2023-01-23T03:01:54.579Z,11.10
2023-01-23T03:04:22.455Z,8.53
2023-01-23T03:06:51.002Z,10.33
2023-01-23T03:09:19.781Z,9.10
2023-01-23T03:11:48.845Z,9.60
2023-01-23T03:14:20.151Z,8.43
2023-01-23T03:16:51.785Z,9.27
2023-01-23T03:19:23.029Z,9.70
2023-01-23T03:21:52.331Z,9.00
2023-01-23T03:24:21.529Z,9.27
2023-01-23T03:26:50.848Z,10.37
2023-01-23T03:29:40.288Z,8.50
2023-01-23T03:32:08.957Z,9.00
2023-01-23T03:34:37.059Z,8.50
2023-01-23T03:37:08.310Z,8.70
2023-01-23T03:39:58.852Z,8.20
2023-01-23T03:42:29.920Z,9.70
2023-01-23T03:44:59.058Z,8.60
2023-01-23T03:47:27.324Z,9.60
2023-01-23T03:49:55.772Z,9.00
2023-01-23T03:52:23.795Z,8.87
2023-01-23T03:54:53.319Z,9.00
2023-01-23T03:57:21.627Z,8.53
2023-01-23T03:59:49.807Z,7.77
2023-01-23T04:02:19.912Z,8.00
2023-01-23T04:04:49.117Z,9.83
2023-01-23T04:07:17.163Z,8.60
2023-01-23T04:09:45.439Z,8.93
2023-01-23T04:12:14.245Z,7.30
2023-01-23T04:14:42.839Z,9.37
2023-01-23T04:17:12.497Z,8.00
2023-01-23T04:19:42.546Z,9.03
2023-01-23T04:22:10.944Z,9.80
2023-01-23T04:24:39.080Z,9.60
2023-01-23T04:27:07.607Z,10.10
2023-01-23T04:29:35.648Z,10.50
2023-01-23T04:32:04.834Z,9.80
2023-01-23T04:34:33.977Z,9.50
2023-01-23T04:37:03.808Z,9.20
2023-01-23T04:39:33.505Z,9.40
2023-01-23T04:42:02.020Z,11.57
2023-01-23T04:44:29.904Z,9.33
2023-01-23T04:46:58.311Z,9.57
2023-01-23T04:49:26.474Z,11.57
2023-01-23T04:51:55.461Z,9.13
2023-01-23T04:54:24.693Z,10.23
2023-01-23T04:56:53.121Z,9.73
2023-01-23T04:59:22.301Z,10.40
2023-01-23T05:01:54.299Z,9.33
2023-01-23T05:04:22.306Z,9.77
2023-01-23T05:06:51.409Z,9.83
2023-01-23T05:09:19.546Z,9.27
2023-01-23T05:11:52.269Z,9.83
2023-01-23T05:14:22.157Z,10.50
2023-01-23T05:16:50.295Z,9.50
2023-01-23T05:19:18.954Z,11.10
2023-01-23T05:21:46.983Z,9.43
2023-01-23T05:24:14.936Z,10.57
2023-01-23T05:26:44.347Z,10.27
2023-01-23T05:29:13.758Z,10.20
2023-01-23T05:31:41.701Z,9.60
2023-01-23T05:34:10.077Z,9.53
2023-01-23T05:36:38.145Z,9.07
2023-01-23T05:39:06.227Z,9.17
2023-01-23T05:41:36.226Z,9.30
2023-01-23T05:44:04.184Z,9.13
2023-01-23T05:46:33.769Z,10.80
2023-01-23T05:49:02.231Z,10.17
2023-01-23T05:51:33.887Z,10.20
2023-01-23T05:54:03.368Z,10.23
2023-01-23T05:56:31.456Z,10.10
2023-01-23T05:58:59.508Z,10.87
2023-01-23T06:01:28.404Z,10.60
2023-01-23T06:03:57.943Z,9.77
2023-01-23T06:06:27.583Z,10.50
2023-01-23T06:08:58.675Z,9.53
2023-01-23T06:11:27.875Z,9.97
2023-01-23T06:13:58.094Z,10.20
2023-01-23T06:16:28.348Z,10.33
2023-01-23T06:18:57.769Z,7.80
2023-01-23T06:21:25.771Z,9.10
2023-01-23T06:23:54.681Z,9.33
2023-01-23T06:26:23.145Z,9.47
2023-01-23T06:28:51.447Z,9.63
2023-01-23T06:31:20.243Z,9.77
2023-01-23T06:33:52.349Z,9.77
2023-01-23T06:36:23.066Z,9.33
2023-01-23T06:38:51.895Z,10.47
2023-01-23T06:41:20.634Z,11.17
2023-01-23T06:43:49.575Z,9.50
2023-01-23T06:46:17.631Z,10.70
2023-01-23T06:48:46.286Z,9.40
2023-01-23T06:51:15.051Z,9.40
2023-01-23T06:53:47.162Z,10.33
2023-01-23T06:56:15.955Z,9.93
2023-01-23T06:58:47.532Z,11.87
2023-01-23T07:01:18.894Z,8.37
2023-01-23T07:03:47.974Z,9.43
2023-01-23T07:06:17.401Z,9.30
2023-01-23T07:08:47.742Z,10.00
2023-01-23T07:11:16.021Z,10.63
2023-01-23T07:13:44.209Z,9.07
2023-01-23T07:16:12.877Z,10.27
2023-01-23T07:18:41.020Z,9.07
2023-01-23T07:21:09.423Z,8.77
2023-01-23T07:23:38.330Z,8.80
2023-01-23T07:26:09.755Z,10.20
2023-01-23T07:28:38.560Z,9.27
2023-01-23T07:31:07.622Z,9.50
2023-01-23T07:33:38.317Z,9.73
2023-01-23T07:36:08.085Z,9.20
2023-01-23T07:38:37.032Z,9.30
2023-01-23T07:41:06.583Z,8.47
2023-01-23T07:43:37.522Z,10.03
2023-01-23T07:46:15.147Z,8.93
2023-01-23T07:48:43.270Z,9.13
2023-01-23T07:51:12.421Z,10.07
2023-01-23T07:53:40.825Z,9.83
2023-01-23T07:56:09.663Z,9.60
2023-01-23T07:58:39.750Z,10.00
2023-01-23T08:01:11.939Z,10.67
2023-01-23T08:03:41.046Z,8.97
2023-01-23T08:06:14.500Z,8.73
2023-01-23T08:08:43.714Z,8.53
2023-01-23T08:11:21.377Z,9.27
2023-01-23T08:13:52.782Z,8.33
2023-01-23T08:16:21.594Z,9.67
2023-01-23T08:18:50.063Z,9.73
2023-01-23T08:21:19.233Z,8.57
2023-01-23T08:23:47.656Z,9.20
2023-01-23T08:26:18.919Z,8.30
2023-01-23T08:28:50.075Z,10.13
2023-01-23T08:31:20.990Z,9.60
2023-01-23T08:33:50.062Z,10.60
2023-01-23T08:36:18.453Z,11.77
2023-01-23T08:38:46.862Z,10.67
2023-01-23T08:41:15.765Z,11.43
2023-01-23T08:43:44.687Z,12.37
2023-01-23T08:46:13.390Z,12.00
2023-01-23T08:48:43.796Z,10.10
2023-01-23T08:51:14.255Z,10.93
2023-01-23T08:53:42.669Z,9.83
2023-01-23T08:56:17.309Z,11.07
2023-01-23T08:58:46.265Z,10.43
2023-01-23T09:01:15.537Z,9.07
2023-01-23T09:03:46.766Z,11.50
2023-01-23T09:06:16.607Z,10.50
2023-01-23T09:08:45.097Z,9.30
2023-01-23T09:11:15.460Z,10.60
2023-01-23T09:13:44.140Z,9.07
2023-01-23T09:16:12.467Z,10.40
2023-01-23T09:18:41.282Z,11.00
2023-01-23T09:21:12.835Z,9.70
2023-01-23T09:23:41.803Z,10.40
2023-01-23T09:26:11.693Z,10.70
2023-01-23T09:28:43.129Z,10.30
2023-01-23T09:31:13.585Z,8.40
2023-01-23T09:33:42.814Z,8.90
2023-01-23T09:36:13.816Z,10.07
2023-01-23T09:38:42.827Z,9.70
2023-01-23T09:41:18.377Z,8.13
2023-01-23T09:43:54.419Z,9.10
2023-01-23T09:46:29.490Z,9.23
2023-01-23T09:49:04.668Z,8.70
2023-01-23T09:51:46.496Z,11.13
2023-01-23T09:54:26.863Z,9.13
2023-01-23T09:56:57.795Z,9.00
2023-01-23T09:59:40.367Z,9.80
2023-01-23T10:02:20.437Z,10.27
2023-01-23T10:04:51.408Z,9.87
2023-01-23T10:07:37.500Z,10.10
2023-01-23T10:10:29.691Z,10.87
2023-01-23T10:13:09.817Z,9.20
2023-01-23T10:15:57.431Z,9.80
2023-01-23T10:18:28.462Z,9.83
2023-01-23T10:21:12.094Z,9.30
2023-01-23T10:23:55.947Z,9.27
2023-01-23T10:26:31.708Z,10.33
2023-01-23T10:29:13.167Z,9.90
2023-01-23T10:31:46.749Z,10.50
2023-01-23T10:34:22.298Z,10.70
2023-01-23T10:37:04.502Z,10.13
2023-01-23T10:39:47.770Z,11.20
2023-01-23T10:42:24.324Z,11.10
2023-01-23T10:44:54.152Z,12.73
2023-01-23T10:47:33.241Z,11.37
2023-01-23T10:50:04.924Z,11.50
2023-01-23T10:52:39.781Z,11.63
2023-01-23T10:55:31.906Z,11.47
2023-01-23T10:58:04.151Z,12.30
2023-01-23T11:00:40.221Z,11.77
2023-01-23T11:03:30.814Z,12.40
2023-01-23T11:06:04.547Z,14.07
2023-01-23T11:08:37.419Z,12.73
2023-01-23T11:11:27.309Z,14.00
2023-01-23T11:14:09.903Z,13.13
2023-01-23T11:16:45.074Z,13.37
2023-01-23T11:19:26.954Z,12.40
2023-01-23T11:21:58.833Z,12.83
2023-01-23T11:24:41.083Z,11.70
2023-01-23T11:27:24.435Z,11.20
2023-01-23T11:30:13.424Z,37.57
2023-01-23T11:32:51.632Z,13.27
2023-01-23T11:35:27.102Z,12.33
2023-01-23T11:38:03.102Z,10.73
2023-01-23T11:40:33.573Z,11.43
2023-01-23T11:43:13.135Z,10.93
2023-01-23T11:45:52.475Z,10.93
2023-01-23T11:48:42.086Z,11.10
2023-01-23T11:51:29.825Z,10.63
2023-01-23T11:54:12.014Z,10.93
2023-01-23T11:56:56.443Z,11.37
2023-01-23T11:59:47.965Z,11.53
2023-01-23T12:02:45.446Z,10.40
2023-01-23T12:05:48.627Z,10.13
2023-01-23T12:08:30.789Z,8.80
2023-01-23T12:11:13.402Z,9.17
2023-01-23T12:14:09.567Z,8.77
2023-01-23T12:16:54.691Z,8.43
2023-01-23T12:19:39.472Z,8.90
2023-01-23T12:22:17.600Z,9.60
2023-01-23T12:24:59.478Z,9.43
2023-01-23T12:27:38.287Z,9.87
2023-01-23T12:30:34.849Z,10.73
2023-01-23T12:33:20.716Z,10.23
2023-01-23T12:35:59.180Z,10.50
2023-01-23T12:38:35.108Z,11.47
2023-01-23T12:41:22.474Z,10.83
2023-01-23T12:43:57.042Z,9.07
2023-01-23T12:46:31.162Z,10.53
2023-01-23T12:49:15.439Z,10.87
2023-01-23T12:51:49.943Z,10.83
2023-01-23T12:54:33.187Z,12.10
2023-01-23T12:57:04.010Z,10.90
2023-01-23T12:59:46.723Z,11.60
2023-01-23T13:02:23.356Z,11.07
2023-01-23T13:05:18.238Z,10.20
2023-01-23T13:07:56.109Z,11.83
2023-01-23T13:11:13.356Z,11.37
2023-01-23T13:13:46.400Z,10.53
2023-01-23T13:16:17.507Z,10.90
2023-01-23T13:19:14.538Z,9.83
2023-01-23T13:22:09.295Z,11.03
2023-01-23T13:25:15.786Z,10.53
2023-01-23T13:27:48.802Z,12.13
2023-01-23T13:30:42.411Z,10.30
2023-01-23T13:34:10.237Z,11.60
2023-01-23T13:36:46.120Z,11.73
2023-01-23T13:39:29.718Z,10.33
2023-01-23T13:42:38.678Z,10.00
2023-01-23T13:45:27.601Z,11.37
2023-01-23T14:21:30.335Z,10.90
2023-01-23T14:24:05.078Z,11.50
2023-01-23T14:26:36.345Z,11.23
2023-01-23T14:29:18.197Z,11.07
2023-01-23T14:31:47.680Z,11.63
2023-01-23T14:34:20.390Z,11.93
2023-01-23T14:36:52.863Z,11.90
2023-01-23T14:39:25.029Z,10.97
2023-01-23T14:41:59.067Z,10.40
2023-01-23T14:44:32.361Z,13.03
2023-01-23T14:47:04.211Z,10.60
2023-01-23T14:49:37.694Z,13.13
2023-01-23T14:52:08.227Z,10.43
2023-01-23T14:54:37.996Z,12.70
2023-01-23T14:57:10.841Z,11.67
2023-01-23T14:59:41.524Z,13.50
2023-01-23T15:02:28.240Z,12.23
2023-01-23T15:05:17.626Z,12.67
2023-01-23T15:07:48.458Z,13.07
2023-01-23T15:10:20.554Z,11.57
2023-01-23T15:12:52.075Z,11.83
2023-01-23T15:15:24.161Z,12.23
2023-01-23T15:17:54.278Z,12.50
2023-01-23T15:20:32.879Z,13.00
2023-01-23T15:23:22.535Z,11.23
2023-01-23T15:26:12.467Z,12.20
2023-01-23T15:28:43.700Z,13.17
2023-01-23T15:31:38.324Z,13.37
2023-01-23T15:34:22.705Z,14.40
2023-01-23T15:36:54.814Z,12.53
2023-01-23T15:39:27.855Z,13.30
2023-01-23T15:41:59.979Z,12.90
2023-01-23T15:44:32.556Z,13.80
2023-01-23T15:47:05.375Z,13.27
2023-01-23T15:49:38.460Z,14.70
2023-01-23T15:52:20.700Z,14.03
2023-01-23T15:54:50.782Z,15.33
2023-01-23T15:57:20.539Z,14.43
2023-01-23T15:59:51.471Z,13.23
2023-01-23T16:02:33.547Z,15.37
2023-01-23T16:05:04.299Z,13.87
2023-01-23T16:07:36.567Z,13.10
2023-01-23T16:10:09.434Z,13.60
2023-01-23T16:12:43.593Z,13.93
2023-01-23T16:15:17.452Z,14.40
2023-01-23T16:17:47.053Z,13.60
2023-01-23T16:20:16.893Z,13.97
2023-01-23T16:22:51.689Z,14.10
2023-01-23T16:25:38.017Z,14.20
2023-01-23T16:28:14.768Z,13.47
2023-01-23T16:30:43.566Z,13.97
2023-01-23T16:33:13.110Z,12.50
2023-01-23T16:35:48.602Z,13.40
2023-01-23T16:38:22.665Z,14.17
2023-01-23T16:40:53.791Z,14.00
2023-01-23T16:43:23.464Z,14.40
2023-01-23T16:45:56.136Z,12.63
2023-01-23T16:48:27.727Z,15.27
2023-01-23T16:51:00.967Z,15.63
2023-01-23T16:53:33.094Z,15.60
2023-01-23T16:56:03.736Z,14.63
2023-01-23T16:58:36.819Z,14.80
2023-01-23T17:01:10.394Z,13.00
2023-01-23T17:03:41.985Z,15.20
2023-01-23T17:06:15.764Z,16.33
2023-01-23T17:08:45.391Z,13.67
2023-01-23T17:11:21.942Z,14.63
2023-01-23T17:13:52.408Z,14.27
2023-01-23T17:16:27.428Z,15.77
2023-01-23T17:18:59.261Z,15.67
2023-01-23T17:21:33.209Z,16.77
2023-01-23T17:24:04.421Z,15.00
2023-01-23T17:26:33.056Z,15.30
2023-01-23T17:29:01.262Z,15.20
2023-01-23T17:31:32.951Z,14.00
2023-01-23T17:34:01.613Z,15.03
2023-01-23T17:36:29.750Z,15.03
2023-01-23T17:39:00.473Z,14.53
2023-01-23T17:41:32.207Z,14.13
2023-01-23T17:44:01.182Z,13.80
2023-01-23T17:46:33.002Z,14.73
2023-01-23T17:49:01.852Z,15.90
2023-01-23T17:51:30.046Z,13.57
2023-01-23T17:53:59.040Z,12.77
2023-01-23T17:56:27.459Z,16.30
2023-01-23T17:58:57.118Z,14.60
2023-01-23T18:01:26.836Z,15.17
2023-01-23T18:03:56.047Z,13.47
2023-01-23T18:06:24.252Z,15.60
2023-01-23T18:08:52.377Z,17.23
2023-01-23T18:11:22.959Z,19.00
2023-01-23T18:14:16.779Z,15.83
2023-01-23T18:16:48.249Z,15.20
2023-01-23T18:19:19.135Z,15.10
2023-01-23T18:21:49.811Z,14.37
2023-01-23T18:24:24.872Z,15.27
2023-01-23T18:26:59.472Z,14.23
2023-01-23T18:29:36.814Z,13.87
2023-01-23T18:32:29.173Z,14.20
2023-01-23T18:35:03.998Z,12.73
2023-01-23T18:37:44.898Z,14.03
2023-01-23T18:40:22.201Z,13.70
2023-01-23T18:42:56.965Z,14.40
2023-01-23T18:45:28.092Z,12.40
2023-01-23T18:47:57.651Z,13.33
2023-01-23T18:50:27.125Z,12.57
2023-01-23T18:53:17.462Z,12.53
2023-01-23T18:55:51.940Z,11.93
2023-01-23T18:58:32.621Z,11.53
2023-01-23T19:01:13.441Z,12.45
2023-01-23T19:03:44.952Z,11.97
2023-01-23T19:06:20.845Z,12.75
2023-01-23T19:08:50.764Z,14.25
2023-01-23T19:11:32.651Z,12.90
2023-01-23T19:14:12.720Z,12.45
2023-01-23T19:16:46.887Z,13.60
2023-01-23T19:19:25.065Z,11.68
2023-01-23T19:21:53.653Z,13.13
2023-01-23T19:24:22.145Z,12.77
2023-01-23T19:26:51.907Z,13.25
2023-01-23T19:29:22.723Z,12.77
2023-01-23T19:32:09.203Z,13.70
2023-01-23T19:34:37.256Z,13.20
2023-01-23T19:37:05.852Z,12.50
2023-01-23T19:39:34.258Z,14.40
2023-01-23T19:42:02.319Z,12.30
2023-01-23T19:44:31.310Z,13.25
2023-01-23T19:47:03.500Z,12.88
2023-01-23T19:49:33.264Z,11.90
2023-01-23T19:52:01.983Z,12.27
2023-01-23T19:54:29.933Z,12.93
2023-01-23T19:56:58.401Z,11.83
2023-01-23T19:59:27.302Z,12.53
2023-01-23T20:01:55.593Z,11.30
2023-01-23T20:04:25.874Z,12.37
2023-01-23T20:06:53.972Z,13.13
2023-01-23T20:09:22.832Z,12.03
2023-01-23T20:11:52.701Z,11.13
2023-01-23T20:14:22.248Z,11.50
2023-01-23T20:16:50.375Z,11.87
2023-01-23T20:19:20.070Z,12.30
2023-01-23T20:21:50.725Z,11.90
2023-01-23T20:24:19.209Z,12.10
2023-01-23T20:26:48.046Z,12.37
2023-01-23T20:29:16.651Z,11.05
2023-01-23T20:31:44.975Z,14.03
2023-01-23T20:34:13.492Z,11.10
2023-01-23T20:36:42.092Z,11.30
2023-01-23T20:39:12.310Z,11.83
2023-01-23T20:41:40.895Z,10.57
2023-01-23T20:44:09.447Z,10.45
2023-01-23T20:46:37.622Z,11.20
2023-01-23T20:49:06.473Z,11.87
2023-01-23T20:51:34.716Z,11.43
2023-01-23T20:54:01.881Z,11.60
2023-01-23T20:56:32.012Z,12.32
2023-01-23T20:59:17.852Z,12.50
2023-01-23T21:02:04.797Z,10.77
2023-01-23T21:04:34.520Z,10.70
2023-01-23T21:07:03.078Z,11.33
2023-01-23T21:09:31.859Z,12.00
2023-01-23T21:12:01.389Z,11.53
2023-01-23T21:14:29.968Z,11.00
2023-01-23T21:16:58.830Z,9.93
2023-01-23T21:19:27.675Z,11.20
2023-01-23T21:21:56.092Z,10.55
2023-01-23T21:24:25.282Z,12.53
2023-01-23T21:26:53.343Z,10.93
2023-01-23T21:29:22.833Z,10.73
2023-01-23T21:31:51.745Z,12.80
2023-01-23T21:34:20.213Z,10.67
2023-01-23T21:36:48.497Z,10.93
2023-01-23T21:39:18.191Z,10.90
2023-01-23T21:41:46.371Z,9.63
2023-01-23T21:44:14.923Z,10.80
2023-01-23T21:46:47.062Z,10.93
2023-01-23T21:49:15.711Z,9.43
2023-01-23T21:51:44.790Z,9.43
2023-01-23T21:54:13.381Z,12.00
2023-01-23T21:56:41.402Z,9.43
2023-01-23T21:59:09.282Z,11.00
2023-01-23T22:01:38.095Z,9.40
2023-01-23T22:04:09.655Z,10.37
2023-01-23T22:06:39.719Z,9.07
2023-01-23T22:09:09.331Z,8.23
2023-01-23T22:11:37.709Z,10.07
2023-01-23T22:14:06.373Z,8.17
2023-01-23T22:16:50.666Z,9.07
2023-01-23T22:19:25.548Z,9.43
2023-01-23T22:21:54.519Z,9.50
2023-01-23T22:24:23.424Z,8.77
2023-01-23T22:26:51.552Z,8.93
2023-01-23T22:29:19.758Z,8.83
2023-01-23T22:31:48.520Z,8.50
2023-01-23T22:34:16.668Z,8.67
2023-01-23T22:36:46.201Z,8.63
2023-01-23T22:39:16.534Z,9.73
2023-01-23T22:41:46.353Z,8.70
2023-01-23T22:44:14.729Z,9.53
2023-01-23T22:46:43.412Z,9.67
2023-01-23T22:49:11.431Z,8.93
2023-01-23T22:51:39.878Z,8.30
2023-01-23T22:54:09.378Z,8.77
2023-01-23T22:56:37.562Z,8.67
2023-01-23T22:59:05.810Z,8.27
2023-01-23T23:01:34.223Z,8.27
2023-01-23T23:04:02.333Z,9.00
2023-01-23T23:06:30.451Z,10.07
2023-01-23T23:08:58.865Z,9.53
2023-01-23T23:11:29.930Z,8.73
2023-01-23T23:13:59.373Z,8.90
2023-01-23T23:16:29.407Z,8.37
2023-01-23T23:18:58.404Z,9.47
2023-01-23T23:21:30.844Z,9.83
2023-01-23T23:24:00.633Z,8.80
2023-01-23T23:26:32.749Z,8.00
2023-01-23T23:29:01.342Z,8.00
2023-01-23T23:31:30.074Z,7.50
2023-01-23T23:33:58.614Z,8.97
2023-01-23T23:36:26.688Z,8.33
2023-01-23T23:38:55.025Z,9.30
2023-01-23T23:41:23.622Z,9.73
2023-01-23T23:43:53.136Z,9.33
2023-01-23T23:46:21.288Z,10.07
2023-01-23T23:48:49.806Z,10.10
2023-01-23T23:51:19.905Z,9.03
2023-01-23T23:53:49.920Z,8.70
2023-01-23T23:56:21.707Z,8.47
2023-01-23T23:58:50.389Z,7.90
